GMMX/RAK METAR and TAF weather

Enter ICAO airport designator
Station Type Date Time Source
GMMX METAR 2021/08/02 02:00 UTC NOAA

GMMX 020200Z VRB03KT 8000 NSC 20/12 Q1016 NOSIG


Station Type Date Time Source
GMMX Decoded METAR 2021/08/02 02:00 UTC NOAA

Marrakech, Morocco (GMMX) 31-37N 008-02W 466M
Aug 01, 2021 - 10:00 PM EDT / 2021.08.02 0200 UTC
Wind: Variable at 3 MPH (3 KT):0
Visibility: 4 mile(s):0
Temperature: 68 F (20 C)
Dew Point: 53 F (12 C)
Relative Humidity: 59%
Pressure (altimeter): 30.00 in. Hg (1016 hPa)
ob: GMMX 020200Z VRB03KT 8000 NSC 20/12 Q1016 NOSIG
cycle: 2

Station Type Date Time Source
GMMX TAF 2021/08/01 18:30 UTC NOAA

TAF TAF GMMX 011700Z 0118/0224 04006KT 8000 NSC
TEMPO 0118/0122 34016KT SCT030

Example: see airport list